Joanopolis, Brazil
Current Conditions -  °F | °C
As of 4:00 PM on Saturday 22 Nov 2014 (Local Time) from SBSJ Reporting Station
Thunderstorm Thunderstorm  
Wind Chill: 82°   Ceiling: 8000
Heat Index: 84°   Visibility: 6mi
Dew Point: 64°   Wind: 12mph
Humidity: 54%   Direction: 210°SSW
Pressure: 29.91"   Gusts: NA
Location:  22.93°S, 46.29°W
Report Text: SBSJ 221800Z 21010KT 9999 TS SCT023 FEW027CB BKN080 28/18 Q1013
Loading
Personal Weather Stations






























Interactive Weather Map New forecast layout! Learn more

10-Day Weather Forecast

Advertisements
Track Severe Weather on mobile